UAL2010 KSFO-PHOG
Flight info
| Callsign | UAL2010 |
|---|---|
| Flight time | 4h 54m |
| Altitude | 32000 |
| Route | GNNRR3 CINNY ALANN GITLE DIALO R576 DUSAC/N0454F340 R576 DENNS LAVAS1 |
| Aircraft | B753/M-SDE2E3FGHIJ3J4J7RWXY/LB1 |
Departure
| Time | 2026-04-21 19:33 |
|---|---|
| Airport | San Francisco International Airport (KSFO) |
Arrival
| Time | 2026-04-22 00:28 |
|---|---|
| Airport | Kahului International Airport (PHOG) |
| Time | Latitude | Longitude | Altitude | Speed | Heading |
|---|---|---|---|---|---|
| 2026-04-21 19:18 | 37.61881 | -122.38371 | 34 ft | 0 kts | 297° |
| 2026-04-21 19:23 | 37.61877 | -122.38361 | 33 ft | 2 kts | 297° |
| 2026-04-21 19:23 | 37.61871 | -122.38345 | 33 ft | 2 kts | 297° |
| 2026-04-21 19:23 | 37.61863 | -122.38329 | 33 ft | 2 kts | 327° |
| 2026-04-21 19:24 | 37.61849 | -122.38324 | 33 ft | 2 kts | 4° |
| 2026-04-21 19:24 | 37.61840 | -122.38326 | 33 ft | 1 kts | 26° |
| 2026-04-21 19:24 | 37.61835 | -122.38330 | 33 ft | 0 kts | 27° |
| 2026-04-21 19:26 | 37.61855 | -122.38317 | 33 ft | 8 kts | 27° |
| 2026-04-21 19:26 | 37.61912 | -122.38281 | 33 ft | 8 kts | 27° |
| 2026-04-21 19:27 | 37.61948 | -122.38237 | 33 ft | 6 kts | 71° |
| 2026-04-21 19:27 | 37.61950 | -122.38186 | 33 ft | 6 kts | 102° |
| 2026-04-21 19:27 | 37.61928 | -122.38113 | 33 ft | 12 kts | 117° |
| 2026-04-21 19:27 | 37.61881 | -122.38000 | 33 ft | 15 kts | 117° |
| 2026-04-21 19:28 | 37.61835 | -122.37880 | 31 ft | 15 kts | 112° |
| 2026-04-21 19:28 | 37.61797 | -122.37757 | 29 ft | 15 kts | 112° |
| 2026-04-21 19:28 | 37.61758 | -122.37636 | 26 ft | 15 kts | 111° |
| 2026-04-21 19:28 | 37.61715 | -122.37505 | 21 ft | 16 kts | 115° |
| 2026-04-21 19:29 | 37.61664 | -122.37375 | 18 ft | 16 kts | 117° |
| 2026-04-21 19:29 | 37.61610 | -122.37250 | 17 ft | 15 kts | 119° |
| 2026-04-21 19:29 | 37.61560 | -122.37131 | 14 ft | 16 kts | 116° |
| 2026-04-21 19:29 | 37.61510 | -122.37006 | 14 ft | 14 kts | 118° |
| 2026-04-21 19:30 | 37.61459 | -122.36906 | 14 ft | 12 kts | 134° |
| 2026-04-21 19:30 | 37.61404 | -122.36835 | 14 ft | 10 kts | 135° |
| 2026-04-21 19:30 | 37.61365 | -122.36770 | 14 ft | 8 kts | 121° |
| 2026-04-21 19:30 | 37.61334 | -122.36698 | 14 ft | 15 kts | 118° |
| 2026-04-21 19:31 | 37.61263 | -122.36533 | 13 ft | 26 kts | 119° |
| 2026-04-21 19:31 | 37.61168 | -122.36309 | 11 ft | 29 kts | 118° |
| 2026-04-21 19:31 | 37.61098 | -122.36145 | 10 ft | 17 kts | 117° |
| 2026-04-21 19:31 | 37.61053 | -122.36013 | 10 ft | 15 kts | 98° |
| 2026-04-21 19:32 | 37.61095 | -122.35909 | 10 ft | 13 kts | 34° |
| 2026-04-21 19:32 | 37.61174 | -122.35889 | 11 ft | 11 kts | 337° |
| 2026-04-21 19:32 | 37.61234 | -122.35983 | 10 ft | 24 kts | 298° |
| 2026-04-21 19:32 | 37.61408 | -122.36401 | 14 ft | 83 kts | 297° |
| 2026-04-21 19:33 | 37.61628 | -122.36923 | 14 ft | 120 kts | 298° |
| 2026-04-21 19:33 | 37.62299 | -122.38520 | 48 ft | 184 kts | 297° |
| 2026-04-21 19:33 | 37.62937 | -122.40020 | 386 ft | 205 kts | 295° |
| 2026-04-21 19:33 | 37.63591 | -122.41553 | 1363 ft | 198 kts | 296° |
| 2026-04-21 19:34 | 37.64278 | -122.43103 | 1790 ft | 213 kts | 296° |
| 2026-04-21 19:34 | 37.65022 | -122.44786 | 2345 ft | 221 kts | 296° |
| 2026-04-21 19:34 | 37.65763 | -122.46459 | 3004 ft | 225 kts | 296° |
| 2026-04-21 19:34 | 37.66524 | -122.48201 | 3593 ft | 232 kts | 291° |
| 2026-04-21 19:35 | 37.66856 | -122.50220 | 3932 ft | 246 kts | 261° |
| 2026-04-21 19:35 | 37.65123 | -122.53994 | 5230 ft | 257 kts | 231° |
| 2026-04-21 19:35 | 37.64014 | -122.55728 | 5997 ft | 260 kts | 231° |
| 2026-04-21 19:36 | 37.62877 | -122.57504 | 6790 ft | 262 kts | 230° |
| 2026-04-21 19:36 | 37.61728 | -122.59297 | 7597 ft | 263 kts | 230° |
| 2026-04-21 19:36 | 37.60593 | -122.61067 | 8348 ft | 265 kts | 230° |
| 2026-04-21 19:36 | 37.59440 | -122.62865 | 9099 ft | 267 kts | 230° |
| 2026-04-21 19:37 | 37.58270 | -122.64687 | 9824 ft | 269 kts | 230° |
| 2026-04-21 19:37 | 37.57094 | -122.66518 | 10481 ft | 274 kts | 229° |
| 2026-04-21 19:37 | 37.55844 | -122.68458 | 10731 ft | 294 kts | 229° |
| 2026-04-21 19:37 | 37.54509 | -122.70531 | 11003 ft | 313 kts | 229° |
| 2026-04-21 19:38 | 37.53101 | -122.72719 | 11368 ft | 328 kts | 229° |
| 2026-04-21 19:38 | 37.51683 | -122.74922 | 12177 ft | 329 kts | 229° |
| 2026-04-21 19:38 | 37.50224 | -122.77187 | 12847 ft | 334 kts | 229° |
| 2026-04-21 19:38 | 37.48772 | -122.79439 | 13567 ft | 336 kts | 229° |
| 2026-04-21 19:39 | 37.47287 | -122.81740 | 14233 ft | 340 kts | 229° |
| 2026-04-21 19:39 | 37.45792 | -122.84055 | 14886 ft | 344 kts | 229° |
| 2026-04-21 19:39 | 37.44296 | -122.86370 | 15571 ft | 346 kts | 229° |
| 2026-04-21 19:39 | 37.42760 | -122.88746 | 16177 ft | 350 kts | 229° |
| 2026-04-21 19:40 | 37.41232 | -122.91106 | 16811 ft | 353 kts | 229° |
| 2026-04-21 19:40 | 37.39683 | -122.93497 | 17387 ft | 357 kts | 229° |
| 2026-04-21 19:40 | 37.38112 | -122.95921 | 17977 ft | 360 kts | 230° |
| 2026-04-21 19:40 | 37.36518 | -122.98380 | 18585 ft | 363 kts | 229° |
| 2026-04-21 19:41 | 37.34912 | -123.00854 | 19110 ft | 367 kts | 230° |
| 2026-04-21 19:41 | 37.33302 | -123.03333 | 19704 ft | 370 kts | 229° |
| 2026-04-21 19:41 | 37.31679 | -123.05830 | 20265 ft | 372 kts | 229° |
| 2026-04-21 19:41 | 37.30037 | -123.08352 | 20873 ft | 373 kts | 230° |
| 2026-04-21 19:42 | 37.28392 | -123.10880 | 21386 ft | 376 kts | 230° |
| 2026-04-21 19:42 | 37.26740 | -123.13415 | 21907 ft | 379 kts | 230° |
| 2026-04-21 19:42 | 37.25064 | -123.15985 | 22439 ft | 381 kts | 230° |
| 2026-04-21 19:42 | 37.23394 | -123.18544 | 22952 ft | 383 kts | 230° |
| 2026-04-21 19:43 | 37.21707 | -123.21127 | 23398 ft | 386 kts | 230° |
| 2026-04-21 19:43 | 37.20013 | -123.23720 | 23872 ft | 389 kts | 230° |
| 2026-04-21 19:43 | 37.18283 | -123.26363 | 24335 ft | 391 kts | 230° |
| 2026-04-21 19:43 | 37.16571 | -123.28980 | 24658 ft | 394 kts | 230° |
| 2026-04-21 19:44 | 37.14814 | -123.31661 | 25068 ft | 394 kts | 231° |
| 2026-04-21 19:44 | 37.13083 | -123.34300 | 25358 ft | 398 kts | 231° |
| 2026-04-21 19:44 | 37.11339 | -123.36958 | 25736 ft | 398 kts | 231° |
| 2026-04-21 19:44 | 37.09573 | -123.39647 | 26067 ft | 399 kts | 231° |
| 2026-04-21 19:45 | 37.07814 | -123.42324 | 26362 ft | 402 kts | 231° |
| 2026-04-21 19:45 | 37.06025 | -123.45043 | 26697 ft | 402 kts | 232° |
| 2026-04-21 19:45 | 37.04269 | -123.47710 | 26996 ft | 404 kts | 232° |
| 2026-04-21 19:45 | 37.02473 | -123.50436 | 27265 ft | 406 kts | 232° |
| 2026-04-21 19:46 | 37.00668 | -123.53173 | 27580 ft | 406 kts | 233° |
| 2026-04-21 19:46 | 36.98884 | -123.55877 | 27885 ft | 408 kts | 233° |
| 2026-04-21 19:46 | 36.97090 | -123.58594 | 28157 ft | 409 kts | 233° |
| 2026-04-21 19:46 | 36.95262 | -123.61358 | 28508 ft | 409 kts | 233° |
| 2026-04-21 19:47 | 36.93447 | -123.64101 | 28816 ft | 410 kts | 234° |
| 2026-04-21 19:47 | 36.91643 | -123.66827 | 29034 ft | 413 kts | 233° |
| 2026-04-21 19:47 | 36.89806 | -123.69598 | 29333 ft | 414 kts | 233° |
| 2026-04-21 19:47 | 36.87968 | -123.72370 | 29681 ft | 413 kts | 234° |
| 2026-04-21 19:48 | 36.86144 | -123.75120 | 29868 ft | 417 kts | 234° |
| 2026-04-21 19:48 | 36.84288 | -123.77916 | 30129 ft | 419 kts | 234° |
| 2026-04-21 19:48 | 36.82417 | -123.80727 | 30405 ft | 420 kts | 234° |
| 2026-04-21 19:48 | 36.80575 | -123.83495 | 30666 ft | 421 kts | 234° |
| 2026-04-21 19:49 | 36.78699 | -123.86313 | 30874 ft | 424 kts | 234° |
| 2026-04-21 19:49 | 36.76819 | -123.89136 | 31107 ft | 425 kts | 234° |
| 2026-04-21 19:49 | 36.74914 | -123.91991 | 31375 ft | 425 kts | 234° |
| 2026-04-21 19:49 | 36.73028 | -123.94816 | 31611 ft | 426 kts | 234° |
| 2026-04-21 19:50 | 36.71143 | -123.97634 | 31945 ft | 423 kts | 234° |
| 2026-04-21 19:50 | 36.67426 | -124.03189 | 31996 ft | 418 kts | 235° |
| 2026-04-21 19:51 | 36.63701 | -124.08748 | 32003 ft | 419 kts | 235° |
| 2026-04-21 19:51 | 36.59966 | -124.14314 | 31992 ft | 417 kts | 235° |
| 2026-04-21 19:52 | 36.56265 | -124.19820 | 32001 ft | 416 kts | 236° |
| 2026-04-21 19:52 | 36.52548 | -124.25339 | 32004 ft | 418 kts | 236° |
| 2026-04-21 19:53 | 36.48836 | -124.30840 | 31998 ft | 414 kts | 236° |
| 2026-04-21 19:53 | 36.45153 | -124.36293 | 32006 ft | 414 kts | 236° |
| 2026-04-21 19:54 | 36.41457 | -124.41754 | 32001 ft | 414 kts | 237° |
| 2026-04-21 19:54 | 36.37747 | -124.47227 | 32005 ft | 413 kts | 237° |
| 2026-04-21 19:55 | 36.34054 | -124.52666 | 32009 ft | 414 kts | 237° |
| 2026-04-21 19:55 | 36.30363 | -124.58093 | 32001 ft | 412 kts | 237° |
| 2026-04-21 19:56 | 36.26690 | -124.63487 | 32000 ft | 411 kts | 237° |
| 2026-04-21 19:56 | 36.22997 | -124.68901 | 32023 ft | 413 kts | 237° |
| 2026-04-21 19:57 | 36.19294 | -124.74316 | 32033 ft | 410 kts | 237° |
| 2026-04-21 19:57 | 36.16135 | -124.80022 | 32022 ft | 400 kts | 246° |
| 2026-04-21 19:58 | 36.13272 | -124.85951 | 32011 ft | 402 kts | 245° |
| 2026-04-21 19:58 | 36.10396 | -124.91856 | 32008 ft | 403 kts | 246° |
| 2026-04-21 19:59 | 36.07496 | -124.97781 | 32024 ft | 401 kts | 245° |
| 2026-04-21 19:59 | 36.04635 | -125.03616 | 32035 ft | 398 kts | 246° |
| 2026-04-21 20:00 | 36.01762 | -125.09467 | 32027 ft | 401 kts | 245° |
| 2026-04-21 20:00 | 35.98853 | -125.15374 | 32062 ft | 402 kts | 245° |
| 2026-04-21 20:01 | 35.95968 | -125.21220 | 32048 ft | 398 kts | 246° |
| 2026-04-21 20:01 | 35.93095 | -125.27035 | 32028 ft | 398 kts | 246° |
| 2026-04-21 20:02 | 35.90222 | -125.32840 | 32004 ft | 400 kts | 246° |
| 2026-04-21 20:02 | 35.87333 | -125.38665 | 32026 ft | 397 kts | 246° |
| 2026-04-21 20:03 | 35.84440 | -125.44492 | 32031 ft | 401 kts | 246° |
| 2026-04-21 20:03 | 35.81546 | -125.50304 | 32022 ft | 398 kts | 246° |
| 2026-04-21 20:04 | 35.78638 | -125.56142 | 32021 ft | 401 kts | 246° |
| 2026-04-21 20:04 | 35.75738 | -125.61952 | 32025 ft | 399 kts | 246° |
| 2026-04-21 20:05 | 35.72829 | -125.67768 | 32048 ft | 401 kts | 245° |
| 2026-04-21 20:05 | 35.69914 | -125.73586 | 32041 ft | 402 kts | 246° |
| 2026-04-21 20:06 | 35.67005 | -125.79382 | 32036 ft | 398 kts | 245° |
| 2026-04-21 20:06 | 35.64083 | -125.85197 | 32042 ft | 402 kts | 246° |
| 2026-04-21 20:07 | 35.61147 | -125.91028 | 32038 ft | 400 kts | 245° |
| 2026-04-21 20:07 | 35.58335 | -125.96889 | 32038 ft | 397 kts | 249° |
| 2026-04-21 20:08 | 35.55674 | -126.02801 | 32045 ft | 399 kts | 248° |
| 2026-04-21 20:08 | 35.52977 | -126.08768 | 32038 ft | 400 kts | 249° |
| 2026-04-21 20:09 | 35.50288 | -126.14704 | 32048 ft | 398 kts | 248° |
| 2026-04-21 20:09 | 35.47620 | -126.20583 | 32047 ft | 398 kts | 248° |
| 2026-04-21 20:10 | 35.44916 | -126.26530 | 32045 ft | 400 kts | 249° |
| 2026-04-21 20:10 | 35.42211 | -126.32468 | 32050 ft | 399 kts | 248° |
| 2026-04-21 20:11 | 35.39523 | -126.38360 | 32054 ft | 399 kts | 248° |
| 2026-04-21 20:11 | 35.36813 | -126.44286 | 32047 ft | 399 kts | 249° |
| 2026-04-21 20:12 | 35.34100 | -126.50212 | 32037 ft | 400 kts | 248° |
| 2026-04-21 20:12 | 35.31379 | -126.56145 | 32050 ft | 399 kts | 248° |
| 2026-04-21 20:13 | 35.28674 | -126.62032 | 32054 ft | 400 kts | 248° |
| 2026-04-21 20:13 | 35.25946 | -126.67959 | 32068 ft | 400 kts | 248° |
| 2026-04-21 20:14 | 35.23207 | -126.73898 | 32067 ft | 401 kts | 248° |
| 2026-04-21 20:14 | 35.20478 | -126.79807 | 32073 ft | 400 kts | 248° |
| 2026-04-21 20:15 | 35.17747 | -126.85711 | 32068 ft | 399 kts | 248° |
| 2026-04-21 20:15 | 35.15029 | -126.91575 | 32066 ft | 400 kts | 248° |
| 2026-04-21 20:16 | 35.12280 | -126.97498 | 32070 ft | 401 kts | 247° |
| 2026-04-21 20:16 | 35.09526 | -127.03419 | 32076 ft | 401 kts | 248° |
| 2026-04-21 20:17 | 35.06776 | -127.09320 | 32078 ft | 402 kts | 247° |
| 2026-04-21 20:17 | 35.04015 | -127.15239 | 32089 ft | 402 kts | 248° |
| 2026-04-21 20:18 | 35.01255 | -127.21143 | 32090 ft | 403 kts | 248° |
| 2026-04-21 20:18 | 34.98480 | -127.27065 | 32089 ft | 402 kts | 248° |
| 2026-04-21 20:19 | 34.95723 | -127.32947 | 32089 ft | 403 kts | 248° |
| 2026-04-21 20:19 | 34.92935 | -127.38879 | 32087 ft | 403 kts | 248° |
| 2026-04-21 20:20 | 34.90158 | -127.44778 | 32084 ft | 404 kts | 247° |
| 2026-04-21 20:20 | 34.87356 | -127.50721 | 32076 ft | 404 kts | 248° |
| 2026-04-21 20:21 | 34.84562 | -127.56639 | 32081 ft | 404 kts | 247° |
| 2026-04-21 20:21 | 34.81760 | -127.62560 | 32080 ft | 407 kts | 248° |
| 2026-04-21 20:22 | 34.78940 | -127.68510 | 32098 ft | 404 kts | 246° |
| 2026-04-21 20:22 | 34.74730 | -127.77375 | 32098 ft | 407 kts | 246° |
| 2026-04-21 20:23 | 34.71914 | -127.83292 | 32099 ft | 406 kts | 247° |
| 2026-04-21 20:23 | 34.69087 | -127.89223 | 32097 ft | 405 kts | 246° |
| 2026-04-21 20:24 | 34.66271 | -127.95119 | 32098 ft | 407 kts | 246° |
| 2026-04-21 20:24 | 34.63431 | -128.01056 | 32098 ft | 406 kts | 247° |
| 2026-04-21 20:25 | 34.60595 | -128.06976 | 32100 ft | 407 kts | 246° |
| 2026-04-21 20:25 | 34.57745 | -128.12912 | 32098 ft | 407 kts | 246° |
| 2026-04-21 20:26 | 34.54910 | -128.18810 | 32096 ft | 407 kts | 246° |
| 2026-04-21 20:26 | 34.52049 | -128.24750 | 32097 ft | 406 kts | 246° |
| 2026-04-21 20:27 | 34.49205 | -128.30644 | 32097 ft | 406 kts | 246° |
| 2026-04-21 20:27 | 34.46353 | -128.36549 | 32093 ft | 408 kts | 246° |
| 2026-04-21 20:28 | 34.43509 | -128.42424 | 32095 ft | 406 kts | 246° |
| 2026-04-21 20:28 | 34.40641 | -128.48340 | 32096 ft | 407 kts | 246° |
| 2026-04-21 20:29 | 34.37779 | -128.54233 | 32094 ft | 407 kts | 246° |
| 2026-04-21 20:29 | 34.34936 | -128.60074 | 32094 ft | 406 kts | 246° |
| 2026-04-21 20:30 | 34.32055 | -128.65988 | 32103 ft | 407 kts | 246° |
| 2026-04-21 20:30 | 34.29202 | -128.71832 | 32108 ft | 405 kts | 246° |
| 2026-04-21 20:31 | 34.26343 | -128.77683 | 32112 ft | 406 kts | 246° |
| 2026-04-21 20:31 | 34.23468 | -128.83553 | 32109 ft | 407 kts | 246° |
| 2026-04-21 20:32 | 34.20583 | -128.89435 | 32113 ft | 407 kts | 246° |
| 2026-04-21 20:32 | 34.17717 | -128.95267 | 32110 ft | 405 kts | 246° |
| 2026-04-21 20:33 | 34.14845 | -129.01105 | 32112 ft | 407 kts | 246° |
| 2026-04-21 20:33 | 34.11963 | -129.06949 | 32110 ft | 407 kts | 246° |
| 2026-04-21 20:34 | 34.09063 | -129.12822 | 32116 ft | 407 kts | 246° |
| 2026-04-21 20:34 | 34.06174 | -129.18666 | 32104 ft | 407 kts | 246° |
| 2026-04-21 20:35 | 34.03275 | -129.24516 | 32115 ft | 406 kts | 246° |
| 2026-04-21 20:35 | 34.00375 | -129.30362 | 32108 ft | 407 kts | 246° |
| 2026-04-21 20:36 | 33.97482 | -129.36182 | 32113 ft | 406 kts | 246° |
| 2026-04-21 20:36 | 33.94588 | -129.41995 | 32115 ft | 407 kts | 246° |
| 2026-04-21 20:37 | 33.91683 | -129.47823 | 32114 ft | 406 kts | 246° |
| 2026-04-21 20:37 | 33.88766 | -129.53662 | 32117 ft | 407 kts | 246° |
| 2026-04-21 20:38 | 33.85877 | -129.59438 | 32113 ft | 405 kts | 246° |
| 2026-04-21 20:38 | 33.82962 | -129.65257 | 32111 ft | 407 kts | 245° |
| 2026-04-21 20:39 | 33.80044 | -129.71071 | 32127 ft | 408 kts | 245° |
| 2026-04-21 20:39 | 33.77122 | -129.76883 | 32128 ft | 405 kts | 245° |
| 2026-04-21 20:40 | 33.74202 | -129.82686 | 32131 ft | 408 kts | 245° |
| 2026-04-21 20:40 | 33.71278 | -129.88480 | 32125 ft | 406 kts | 245° |
| 2026-04-21 20:41 | 33.68350 | -129.94279 | 32123 ft | 408 kts | 245° |
| 2026-04-21 20:41 | 33.65414 | -130.00081 | 32129 ft | 407 kts | 245° |
| 2026-04-21 20:42 | 33.62487 | -130.05856 | 32128 ft | 406 kts | 245° |
| 2026-04-21 20:42 | 33.59528 | -130.11690 | 32128 ft | 408 kts | 245° |
| 2026-04-21 20:43 | 33.56588 | -130.17473 | 32123 ft | 407 kts | 245° |
| 2026-04-21 20:43 | 33.53635 | -130.23271 | 32129 ft | 408 kts | 245° |
| 2026-04-21 20:44 | 33.50695 | -130.29034 | 32129 ft | 406 kts | 245° |
| 2026-04-21 20:44 | 33.47761 | -130.34781 | 32131 ft | 408 kts | 245° |
| 2026-04-21 20:45 | 33.44787 | -130.40595 | 32129 ft | 408 kts | 245° |
| 2026-04-21 20:45 | 33.41826 | -130.46373 | 32130 ft | 409 kts | 245° |
| 2026-04-21 20:46 | 33.38854 | -130.52164 | 32132 ft | 408 kts | 245° |
| 2026-04-21 20:46 | 33.35898 | -130.57913 | 32132 ft | 409 kts | 245° |
| 2026-04-21 20:47 | 33.32912 | -130.63711 | 32130 ft | 410 kts | 245° |
| 2026-04-21 20:47 | 33.29926 | -130.69502 | 32146 ft | 409 kts | 244° |
| 2026-04-21 20:48 | 33.26951 | -130.75264 | 32152 ft | 411 kts | 244° |
| 2026-04-21 20:48 | 33.23954 | -130.81058 | 32153 ft | 410 kts | 244° |
| 2026-04-21 20:49 | 33.20957 | -130.86842 | 32152 ft | 410 kts | 244° |
| 2026-04-21 20:49 | 33.17956 | -130.92622 | 32149 ft | 410 kts | 244° |
| 2026-04-21 20:50 | 33.14966 | -130.98378 | 32152 ft | 411 kts | 244° |
| 2026-04-21 20:50 | 33.11953 | -131.04164 | 32153 ft | 410 kts | 244° |
| 2026-04-21 20:51 | 33.08942 | -131.09940 | 32150 ft | 411 kts | 244° |
| 2026-04-21 20:51 | 33.05924 | -131.15721 | 32150 ft | 414 kts | 244° |
| 2026-04-21 20:52 | 33.02886 | -131.21530 | 32148 ft | 413 kts | 244° |
| 2026-04-21 20:52 | 32.99853 | -131.27318 | 32150 ft | 414 kts | 244° |
| 2026-04-21 20:53 | 32.96799 | -131.33138 | 32144 ft | 414 kts | 243° |
| 2026-04-21 20:53 | 32.93747 | -131.38947 | 32146 ft | 413 kts | 243° |
| 2026-04-21 20:54 | 32.90696 | -131.44743 | 32148 ft | 416 kts | 244° |
| 2026-04-21 20:54 | 32.87637 | -131.50546 | 32145 ft | 415 kts | 243° |
| 2026-04-21 20:55 | 32.84564 | -131.56366 | 32146 ft | 417 kts | 243° |
| 2026-04-21 20:55 | 32.81486 | -131.62184 | 32143 ft | 416 kts | 243° |
| 2026-04-21 20:56 | 32.78400 | -131.68013 | 32160 ft | 418 kts | 243° |
| 2026-04-21 20:56 | 32.75322 | -131.73816 | 32157 ft | 418 kts | 243° |
| 2026-04-21 20:57 | 32.72212 | -131.79668 | 32163 ft | 418 kts | 243° |
| 2026-04-21 20:57 | 32.69122 | -131.85475 | 32160 ft | 418 kts | 243° |
| 2026-04-21 20:58 | 32.66005 | -131.91324 | 32158 ft | 420 kts | 243° |
| 2026-04-21 20:58 | 32.62893 | -131.97153 | 32157 ft | 419 kts | 243° |
| 2026-04-21 20:59 | 32.59771 | -132.02994 | 32162 ft | 420 kts | 243° |
| 2026-04-21 20:59 | 32.56652 | -132.08817 | 32162 ft | 419 kts | 243° |
| 2026-04-21 21:00 | 32.53535 | -132.14630 | 32162 ft | 419 kts | 243° |
| 2026-04-21 21:00 | 32.50409 | -132.20450 | 32166 ft | 422 kts | 242° |
| 2026-04-21 21:01 | 32.47279 | -132.26268 | 32158 ft | 420 kts | 243° |
| 2026-04-21 21:01 | 32.44130 | -132.32114 | 32164 ft | 422 kts | 242° |
| 2026-04-21 21:02 | 32.40974 | -132.37959 | 32160 ft | 423 kts | 242° |
| 2026-04-21 21:02 | 32.37806 | -132.43823 | 32166 ft | 423 kts | 242° |
| 2026-04-21 21:03 | 32.34655 | -132.49640 | 32167 ft | 422 kts | 242° |
| 2026-04-21 21:03 | 32.31501 | -132.55460 | 32168 ft | 422 kts | 242° |
| 2026-04-21 21:04 | 32.28333 | -132.61291 | 32166 ft | 423 kts | 242° |
| 2026-04-21 21:04 | 32.25165 | -132.67119 | 32181 ft | 423 kts | 242° |
| 2026-04-21 21:05 | 32.21973 | -132.72981 | 32178 ft | 426 kts | 242° |
| 2026-04-21 21:05 | 32.18783 | -132.78825 | 32176 ft | 424 kts | 242° |
| 2026-04-21 21:06 | 32.15654 | -132.84732 | 32180 ft | 423 kts | 245° |
| 2026-04-21 21:06 | 32.12772 | -132.90747 | 32178 ft | 423 kts | 245° |
| 2026-04-21 21:07 | 32.09858 | -132.96788 | 32172 ft | 425 kts | 245° |
| 2026-04-21 21:07 | 32.06932 | -133.02838 | 32178 ft | 428 kts | 245° |
| 2026-04-21 21:08 | 32.03998 | -133.08894 | 32175 ft | 427 kts | 244° |
| 2026-04-21 21:08 | 32.01030 | -133.15010 | 32176 ft | 429 kts | 244° |
| 2026-04-21 21:09 | 31.98090 | -133.21057 | 32172 ft | 427 kts | 244° |
| 2026-04-21 21:09 | 31.95132 | -133.27133 | 32171 ft | 428 kts | 245° |
| 2026-04-21 21:10 | 31.92181 | -133.33186 | 32172 ft | 429 kts | 244° |
| 2026-04-21 21:10 | 31.89213 | -133.39261 | 32166 ft | 427 kts | 244° |
| 2026-04-21 21:11 | 31.86267 | -133.45283 | 32168 ft | 429 kts | 244° |
| 2026-04-21 21:11 | 31.83287 | -133.51361 | 32166 ft | 429 kts | 244° |
| 2026-04-21 21:12 | 31.80301 | -133.57448 | 32169 ft | 430 kts | 244° |
| 2026-04-21 21:12 | 31.77315 | -133.63521 | 32165 ft | 430 kts | 244° |
| 2026-04-21 21:13 | 31.74340 | -133.69559 | 32176 ft | 430 kts | 243° |
| 2026-04-21 21:13 | 31.71351 | -133.75621 | 32179 ft | 429 kts | 243° |
| 2026-04-21 21:14 | 31.68350 | -133.81697 | 32176 ft | 431 kts | 243° |
| 2026-04-21 21:14 | 31.65342 | -133.87773 | 32171 ft | 430 kts | 243° |
| 2026-04-21 21:15 | 31.62337 | -133.93839 | 32170 ft | 432 kts | 243° |
| 2026-04-21 21:15 | 31.59323 | -133.99910 | 32171 ft | 433 kts | 243° |
| 2026-04-21 21:16 | 31.56294 | -134.06001 | 32175 ft | 431 kts | 243° |
| 2026-04-21 21:16 | 31.53277 | -134.12061 | 32171 ft | 432 kts | 243° |
| 2026-04-21 21:17 | 31.50254 | -134.18121 | 32172 ft | 433 kts | 243° |
| 2026-04-21 21:17 | 31.47227 | -134.24178 | 32171 ft | 433 kts | 243° |
| 2026-04-21 21:18 | 31.44177 | -134.30275 | 32169 ft | 432 kts | 243° |
| 2026-04-21 21:18 | 31.41154 | -134.36308 | 32173 ft | 434 kts | 243° |
| 2026-04-21 21:19 | 31.38103 | -134.42386 | 32169 ft | 433 kts | 243° |
| 2026-04-21 21:19 | 31.35048 | -134.48462 | 32173 ft | 434 kts | 243° |
| 2026-04-21 21:20 | 31.31976 | -134.54561 | 32171 ft | 434 kts | 243° |
| 2026-04-21 21:20 | 31.28935 | -134.60591 | 32172 ft | 435 kts | 243° |
| 2026-04-21 21:21 | 31.25866 | -134.66666 | 32175 ft | 435 kts | 242° |
| 2026-04-21 21:21 | 31.22790 | -134.72746 | 32168 ft | 436 kts | 242° |
| 2026-04-21 21:22 | 31.19702 | -134.78841 | 32172 ft | 435 kts | 242° |
| 2026-04-21 21:22 | 31.16619 | -134.84914 | 32178 ft | 437 kts | 242° |
| 2026-04-21 21:23 | 31.13516 | -134.91019 | 32171 ft | 437 kts | 242° |
| 2026-04-21 21:23 | 31.10425 | -134.97087 | 32173 ft | 438 kts | 242° |
| 2026-04-21 21:24 | 31.07319 | -135.03180 | 32168 ft | 436 kts | 241° |
| 2026-04-21 21:24 | 31.04203 | -135.09279 | 32174 ft | 439 kts | 241° |
| 2026-04-21 21:25 | 31.01096 | -135.15352 | 32171 ft | 437 kts | 242° |
| 2026-04-21 21:25 | 30.97973 | -135.21448 | 32165 ft | 439 kts | 241° |
| 2026-04-21 21:26 | 30.94854 | -135.27525 | 32174 ft | 439 kts | 241° |
| 2026-04-21 21:26 | 30.91720 | -135.33623 | 32177 ft | 440 kts | 241° |
| 2026-04-21 21:27 | 30.88596 | -135.39693 | 32182 ft | 438 kts | 241° |
| 2026-04-21 21:27 | 30.85451 | -135.45792 | 32193 ft | 440 kts | 241° |
| 2026-04-21 21:28 | 30.82309 | -135.51875 | 32196 ft | 439 kts | 241° |
| 2026-04-21 21:29 | 30.77599 | -135.60977 | 32190 ft | 439 kts | 241° |
| 2026-04-21 21:29 | 30.74446 | -135.67061 | 32192 ft | 440 kts | 240° |
| 2026-04-21 21:30 | 30.71305 | -135.73109 | 32198 ft | 440 kts | 240° |
| 2026-04-21 21:30 | 30.68152 | -135.79175 | 32197 ft | 441 kts | 240° |
| 2026-04-21 21:31 | 30.64971 | -135.85280 | 32191 ft | 439 kts | 240° |
| 2026-04-21 21:31 | 30.61833 | -135.91296 | 32193 ft | 439 kts | 240° |
| 2026-04-21 21:32 | 30.58651 | -135.97385 | 32198 ft | 440 kts | 240° |
| 2026-04-21 21:32 | 30.55491 | -136.03424 | 32196 ft | 440 kts | 240° |
| 2026-04-21 21:33 | 30.52394 | -136.09337 | 32191 ft | 440 kts | 240° |
| 2026-04-21 21:33 | 30.49202 | -136.15418 | 32192 ft | 440 kts | 240° |
| 2026-04-21 21:34 | 30.46026 | -136.21460 | 32196 ft | 440 kts | 240° |
| 2026-04-21 21:34 | 30.42847 | -136.27498 | 32193 ft | 441 kts | 240° |
| 2026-04-21 21:35 | 30.39672 | -136.33521 | 32198 ft | 440 kts | 240° |
| 2026-04-21 21:35 | 30.36480 | -136.39565 | 32196 ft | 440 kts | 239° |
| 2026-04-21 21:36 | 30.33288 | -136.45601 | 32192 ft | 440 kts | 240° |
| 2026-04-21 21:36 | 30.30114 | -136.51593 | 32196 ft | 439 kts | 240° |
| 2026-04-21 21:37 | 30.26900 | -136.57652 | 32199 ft | 441 kts | 239° |
| 2026-04-21 21:37 | 30.23711 | -136.63655 | 32196 ft | 438 kts | 239° |
| 2026-04-21 21:38 | 30.20510 | -136.69672 | 32210 ft | 441 kts | 239° |
| 2026-04-21 21:38 | 30.17315 | -136.75667 | 32201 ft | 441 kts | 239° |
| 2026-04-21 21:39 | 30.14096 | -136.81700 | 32207 ft | 441 kts | 239° |
| 2026-04-21 21:39 | 30.10892 | -136.87692 | 32213 ft | 442 kts | 239° |
| 2026-04-21 21:40 | 30.07670 | -136.93712 | 32206 ft | 442 kts | 239° |
| 2026-04-21 21:40 | 30.04425 | -136.99767 | 32192 ft | 443 kts | 238° |
| 2026-04-21 21:41 | 30.01200 | -137.05772 | 32191 ft | 442 kts | 238° |
| 2026-04-21 21:41 | 29.97968 | -137.11781 | 32189 ft | 440 kts | 238° |
| 2026-04-21 21:42 | 29.94755 | -137.17750 | 32189 ft | 442 kts | 238° |
| 2026-04-21 21:42 | 29.91502 | -137.23779 | 32189 ft | 442 kts | 239° |
| 2026-04-21 21:43 | 29.88279 | -137.29747 | 32189 ft | 439 kts | 239° |
| 2026-04-21 21:43 | 29.85048 | -137.35721 | 32195 ft | 439 kts | 238° |
| 2026-04-21 21:44 | 29.81823 | -137.41675 | 32197 ft | 440 kts | 239° |
| 2026-04-21 21:44 | 29.78600 | -137.47615 | 32195 ft | 437 kts | 238° |
| 2026-04-21 21:45 | 29.75365 | -137.53571 | 32193 ft | 438 kts | 238° |
| 2026-04-21 21:45 | 29.72161 | -137.59457 | 32193 ft | 437 kts | 239° |
| 2026-04-21 21:46 | 29.68928 | -137.65393 | 32191 ft | 437 kts | 238° |
| 2026-04-21 21:46 | 29.65703 | -137.71301 | 32194 ft | 437 kts | 238° |
| 2026-04-21 21:47 | 29.62475 | -137.77210 | 32193 ft | 436 kts | 238° |
| 2026-04-21 21:47 | 29.59240 | -137.83119 | 32197 ft | 437 kts | 238° |
| 2026-04-21 21:48 | 29.56027 | -137.88983 | 32194 ft | 435 kts | 238° |
| 2026-04-21 21:48 | 29.52808 | -137.94849 | 32196 ft | 437 kts | 238° |
| 2026-04-21 21:49 | 29.49556 | -138.00764 | 32196 ft | 438 kts | 238° |
| 2026-04-21 21:49 | 29.46317 | -138.06648 | 32188 ft | 437 kts | 238° |
| 2026-04-21 21:50 | 29.43072 | -138.12535 | 32191 ft | 434 kts | 238° |
| 2026-04-21 21:50 | 29.39831 | -138.18407 | 32192 ft | 439 kts | 238° |
| 2026-04-21 21:51 | 29.36594 | -138.24263 | 32191 ft | 436 kts | 238° |
| 2026-04-21 21:51 | 29.33340 | -138.30139 | 32186 ft | 437 kts | 238° |
| 2026-04-21 21:52 | 29.30101 | -138.35982 | 32186 ft | 437 kts | 238° |
| 2026-04-21 21:52 | 29.26852 | -138.41834 | 32186 ft | 436 kts | 238° |
| 2026-04-21 21:53 | 29.23581 | -138.47717 | 32180 ft | 437 kts | 238° |
| 2026-04-21 21:53 | 29.20339 | -138.53540 | 32182 ft | 436 kts | 238° |
| 2026-04-21 21:54 | 29.17084 | -138.59378 | 32181 ft | 435 kts | 238° |
| 2026-04-21 21:54 | 29.13832 | -138.65202 | 32182 ft | 437 kts | 238° |
| 2026-04-21 21:55 | 29.10562 | -138.71051 | 32185 ft | 436 kts | 237° |
| 2026-04-21 21:55 | 29.07288 | -138.76900 | 32186 ft | 436 kts | 237° |
| 2026-04-21 21:56 | 29.04030 | -138.82710 | 32180 ft | 436 kts | 237° |
| 2026-04-21 21:56 | 29.00767 | -138.88521 | 32168 ft | 438 kts | 238° |
| 2026-04-21 21:57 | 28.97478 | -138.94371 | 32172 ft | 435 kts | 237° |
| 2026-04-21 21:57 | 28.94202 | -139.00189 | 32170 ft | 438 kts | 237° |
| 2026-04-21 21:58 | 28.90929 | -139.05994 | 32178 ft | 437 kts | 238° |
| 2026-04-21 21:58 | 28.87640 | -139.11816 | 32177 ft | 437 kts | 238° |
| 2026-04-21 21:59 | 28.84360 | -139.17621 | 32180 ft | 435 kts | 237° |
| 2026-04-21 21:59 | 28.81088 | -139.23399 | 32181 ft | 437 kts | 237° |
| 2026-04-21 22:00 | 28.77801 | -139.29196 | 32177 ft | 435 kts | 238° |
| 2026-04-21 22:00 | 28.74516 | -139.34982 | 32178 ft | 435 kts | 237° |
| 2026-04-21 22:01 | 28.71238 | -139.40747 | 32180 ft | 435 kts | 238° |
| 2026-04-21 22:01 | 28.68576 | -139.46907 | 32181 ft | 434 kts | 248° |
| 2026-04-21 22:02 | 28.66272 | -139.53224 | 32173 ft | 432 kts | 247° |
| 2026-04-21 22:02 | 28.63951 | -139.59551 | 32177 ft | 434 kts | 247° |
| 2026-04-21 22:03 | 28.61622 | -139.65881 | 32183 ft | 435 kts | 246° |
| 2026-04-21 22:03 | 28.59287 | -139.72214 | 32184 ft | 434 kts | 246° |
| 2026-04-21 22:04 | 28.56969 | -139.78490 | 32187 ft | 432 kts | 246° |
| 2026-04-21 22:04 | 28.54621 | -139.84834 | 32186 ft | 436 kts | 246° |
| 2026-04-21 22:05 | 28.52273 | -139.91168 | 32180 ft | 435 kts | 246° |
| 2026-04-21 22:05 | 28.49943 | -139.97444 | 32187 ft | 434 kts | 246° |
| 2026-04-21 22:06 | 28.47589 | -140.03769 | 32180 ft | 436 kts | 247° |
| 2026-04-21 22:06 | 28.45225 | -140.10117 | 32176 ft | 434 kts | 246° |
| 2026-04-21 22:07 | 28.42886 | -140.16380 | 32177 ft | 434 kts | 246° |
| 2026-04-21 22:07 | 28.40526 | -140.22696 | 32178 ft | 436 kts | 246° |
| 2026-04-21 22:08 | 28.38158 | -140.29018 | 32180 ft | 434 kts | 246° |
| 2026-04-21 22:08 | 28.35797 | -140.35313 | 32178 ft | 437 kts | 246° |
| 2026-04-21 22:09 | 28.33414 | -140.41653 | 32174 ft | 436 kts | 246° |
| 2026-04-21 22:09 | 28.31040 | -140.47965 | 32173 ft | 434 kts | 246° |
| 2026-04-21 22:10 | 28.28667 | -140.54257 | 32176 ft | 437 kts | 246° |
| 2026-04-21 22:10 | 28.26288 | -140.60558 | 32169 ft | 436 kts | 246° |
| 2026-04-21 22:11 | 28.23910 | -140.66844 | 32181 ft | 435 kts | 246° |
| 2026-04-21 22:11 | 28.21520 | -140.73149 | 32180 ft | 435 kts | 246° |
| 2026-04-21 22:12 | 28.19129 | -140.79451 | 32177 ft | 437 kts | 246° |
| 2026-04-21 22:12 | 28.16736 | -140.85747 | 32180 ft | 436 kts | 246° |
| 2026-04-21 22:13 | 28.14337 | -140.92047 | 32175 ft | 436 kts | 246° |
| 2026-04-21 22:13 | 28.11929 | -140.98360 | 32172 ft | 438 kts | 246° |
| 2026-04-21 22:14 | 28.09538 | -141.04620 | 32173 ft | 436 kts | 246° |
| 2026-04-21 22:14 | 28.07116 | -141.10951 | 32171 ft | 437 kts | 246° |
| 2026-04-21 22:15 | 28.04708 | -141.17230 | 32171 ft | 438 kts | 246° |
| 2026-04-21 22:15 | 28.02281 | -141.23553 | 32172 ft | 437 kts | 246° |
| 2026-04-21 22:16 | 27.99865 | -141.29837 | 32172 ft | 439 kts | 246° |
| 2026-04-21 22:16 | 27.97424 | -141.36173 | 32171 ft | 439 kts | 246° |
| 2026-04-21 22:17 | 27.94988 | -141.42490 | 32171 ft | 436 kts | 246° |
| 2026-04-21 22:17 | 27.92574 | -141.48735 | 32170 ft | 436 kts | 246° |
| 2026-04-21 22:18 | 27.90139 | -141.55028 | 32169 ft | 438 kts | 246° |
| 2026-04-21 22:18 | 27.87680 | -141.61369 | 32166 ft | 439 kts | 246° |
| 2026-04-21 22:19 | 27.85236 | -141.67664 | 32174 ft | 439 kts | 246° |
| 2026-04-21 22:19 | 27.82782 | -141.73973 | 32173 ft | 439 kts | 246° |
| 2026-04-21 22:20 | 27.80337 | -141.80250 | 32175 ft | 437 kts | 246° |
| 2026-04-21 22:20 | 27.77885 | -141.86534 | 32174 ft | 441 kts | 246° |
| 2026-04-21 22:21 | 27.75415 | -141.92853 | 32174 ft | 440 kts | 246° |
| 2026-04-21 22:21 | 27.72950 | -141.99150 | 32168 ft | 439 kts | 246° |
| 2026-04-21 22:22 | 27.70479 | -142.05453 | 32176 ft | 439 kts | 246° |
| 2026-04-21 22:22 | 27.68022 | -142.11711 | 32182 ft | 436 kts | 246° |
| 2026-04-21 22:23 | 27.65555 | -142.17981 | 32179 ft | 439 kts | 246° |
| 2026-04-21 22:23 | 27.63091 | -142.24236 | 32182 ft | 437 kts | 246° |
| 2026-04-21 22:24 | 27.60613 | -142.30516 | 32179 ft | 438 kts | 246° |
| 2026-04-21 22:24 | 27.58158 | -142.36728 | 32176 ft | 438 kts | 246° |
| 2026-04-21 22:25 | 27.55667 | -142.43019 | 32175 ft | 438 kts | 246° |
| 2026-04-21 22:25 | 27.53175 | -142.49306 | 32176 ft | 441 kts | 246° |
| 2026-04-21 22:26 | 27.50695 | -142.55550 | 32174 ft | 440 kts | 246° |
| 2026-04-21 22:26 | 27.48181 | -142.61871 | 32165 ft | 443 kts | 246° |
| 2026-04-21 22:27 | 27.45676 | -142.68159 | 32171 ft | 441 kts | 246° |
| 2026-04-21 22:27 | 27.43158 | -142.74471 | 32165 ft | 443 kts | 246° |
| 2026-04-21 22:28 | 27.40648 | -142.80753 | 32163 ft | 443 kts | 246° |
| 2026-04-21 22:28 | 27.38120 | -142.87067 | 32160 ft | 443 kts | 246° |
| 2026-04-21 22:29 | 27.35583 | -142.93396 | 32165 ft | 447 kts | 246° |
| 2026-04-21 22:29 | 27.33030 | -142.99753 | 32161 ft | 445 kts | 246° |
| 2026-04-21 22:30 | 27.30483 | -143.06085 | 32165 ft | 447 kts | 246° |
| 2026-04-21 22:30 | 27.27912 | -143.12470 | 32158 ft | 448 kts | 246° |
| 2026-04-21 22:31 | 27.25346 | -143.18831 | 32155 ft | 447 kts | 246° |
| 2026-04-21 22:31 | 27.22784 | -143.25169 | 32156 ft | 447 kts | 246° |
| 2026-04-21 22:32 | 27.20216 | -143.31514 | 32156 ft | 449 kts | 246° |
| 2026-04-21 22:32 | 27.17634 | -143.37885 | 32153 ft | 449 kts | 246° |
| 2026-04-21 22:33 | 27.15038 | -143.44279 | 32153 ft | 450 kts | 246° |
| 2026-04-21 22:33 | 27.12457 | -143.50627 | 32154 ft | 450 kts | 246° |
| 2026-04-21 22:34 | 27.09850 | -143.57025 | 32154 ft | 451 kts | 246° |
| 2026-04-21 22:34 | 27.07249 | -143.63403 | 32151 ft | 452 kts | 246° |
| 2026-04-21 22:35 | 27.04633 | -143.69806 | 32154 ft | 453 kts | 246° |
| 2026-04-21 22:35 | 27.02005 | -143.76228 | 32154 ft | 453 kts | 246° |
| 2026-04-21 22:36 | 26.98054 | -143.85864 | 32154 ft | 456 kts | 246° |
| 2026-04-21 22:36 | 26.95405 | -143.92314 | 32154 ft | 457 kts | 246° |
| 2026-04-21 22:37 | 26.92740 | -143.98789 | 32153 ft | 455 kts | 246° |
| 2026-04-21 22:37 | 26.90089 | -144.05222 | 32151 ft | 455 kts | 246° |
| 2026-04-21 22:38 | 26.87447 | -144.11623 | 32154 ft | 455 kts | 246° |
| 2026-04-21 22:38 | 26.84791 | -144.18048 | 32152 ft | 455 kts | 246° |
| 2026-04-21 22:39 | 26.82141 | -144.24446 | 32151 ft | 457 kts | 246° |
| 2026-04-21 22:39 | 26.79471 | -144.30884 | 32150 ft | 457 kts | 246° |
| 2026-04-21 22:40 | 26.76788 | -144.37344 | 32152 ft | 458 kts | 246° |
| 2026-04-21 22:40 | 26.74105 | -144.43794 | 32151 ft | 457 kts | 246° |
| 2026-04-21 22:41 | 26.71432 | -144.50209 | 32150 ft | 458 kts | 246° |
| 2026-04-21 22:41 | 26.68747 | -144.56647 | 32151 ft | 458 kts | 246° |
| 2026-04-21 22:42 | 26.66051 | -144.63095 | 32151 ft | 459 kts | 246° |
| 2026-04-21 22:42 | 26.63336 | -144.69580 | 32153 ft | 460 kts | 246° |
| 2026-04-21 22:43 | 26.60621 | -144.76059 | 32152 ft | 462 kts | 246° |
| 2026-04-21 22:43 | 26.57910 | -144.82515 | 32152 ft | 462 kts | 246° |
| 2026-04-21 22:44 | 26.55174 | -144.89021 | 32152 ft | 462 kts | 246° |
| 2026-04-21 22:44 | 26.52435 | -144.95522 | 32152 ft | 464 kts | 246° |
| 2026-04-21 22:45 | 26.49705 | -145.01996 | 32153 ft | 464 kts | 246° |
| 2026-04-21 22:45 | 26.46950 | -145.08514 | 32152 ft | 464 kts | 246° |
| 2026-04-21 22:46 | 26.44207 | -145.14995 | 32150 ft | 465 kts | 246° |
| 2026-04-21 22:46 | 26.41439 | -145.21526 | 32151 ft | 465 kts | 246° |
| 2026-04-21 22:47 | 26.38667 | -145.28056 | 32148 ft | 466 kts | 246° |
| 2026-04-21 22:47 | 26.35893 | -145.34582 | 32146 ft | 466 kts | 246° |
| 2026-04-21 22:48 | 26.33134 | -145.41063 | 32147 ft | 466 kts | 246° |
| 2026-04-21 22:48 | 26.30357 | -145.47574 | 32145 ft | 467 kts | 247° |
| 2026-04-21 22:49 | 26.27556 | -145.54131 | 32144 ft | 467 kts | 247° |
| 2026-04-21 22:49 | 26.24779 | -145.60625 | 32144 ft | 468 kts | 247° |
| 2026-04-21 22:50 | 26.21984 | -145.67146 | 32139 ft | 468 kts | 246° |
| 2026-04-21 22:50 | 26.19170 | -145.73708 | 32143 ft | 469 kts | 246° |
| 2026-04-21 22:51 | 26.16379 | -145.80202 | 32139 ft | 469 kts | 246° |
| 2026-04-21 22:51 | 26.13555 | -145.86763 | 32137 ft | 471 kts | 246° |
| 2026-04-21 22:52 | 26.10728 | -145.93321 | 32136 ft | 471 kts | 246° |
| 2026-04-21 22:52 | 26.07891 | -145.99893 | 32135 ft | 472 kts | 247° |
| 2026-04-21 22:53 | 26.05049 | -146.06464 | 32136 ft | 472 kts | 247° |
| 2026-04-21 22:53 | 26.02216 | -146.13007 | 32133 ft | 472 kts | 247° |
| 2026-04-21 22:54 | 25.99366 | -146.19583 | 32134 ft | 472 kts | 247° |
| 2026-04-21 22:54 | 25.96520 | -146.26147 | 32136 ft | 472 kts | 247° |
| 2026-04-21 22:55 | 25.93671 | -146.32709 | 32136 ft | 472 kts | 247° |
| 2026-04-21 22:55 | 25.90821 | -146.39262 | 32134 ft | 472 kts | 247° |
| 2026-04-21 22:56 | 25.87967 | -146.45816 | 32130 ft | 472 kts | 247° |
| 2026-04-21 22:56 | 25.85116 | -146.52353 | 32126 ft | 472 kts | 247° |
| 2026-04-21 22:57 | 25.82260 | -146.58888 | 32124 ft | 472 kts | 247° |
| 2026-04-21 22:57 | 25.79387 | -146.65456 | 32126 ft | 473 kts | 247° |
| 2026-04-21 22:58 | 25.76528 | -146.71980 | 32123 ft | 472 kts | 247° |
| 2026-04-21 22:58 | 25.73654 | -146.78529 | 32125 ft | 474 kts | 247° |
| 2026-04-21 22:59 | 25.70756 | -146.85124 | 32129 ft | 474 kts | 247° |
| 2026-04-21 22:59 | 25.67881 | -146.91655 | 32130 ft | 474 kts | 247° |
| 2026-04-21 23:00 | 25.64984 | -146.98228 | 32129 ft | 476 kts | 247° |
| 2026-04-21 23:00 | 25.62091 | -147.04779 | 32128 ft | 475 kts | 247° |
| 2026-04-21 23:01 | 25.59194 | -147.11333 | 32126 ft | 476 kts | 247° |
| 2026-04-21 23:01 | 25.56270 | -147.17935 | 32127 ft | 476 kts | 247° |
| 2026-04-21 23:02 | 25.53372 | -147.24469 | 32125 ft | 475 kts | 247° |
| 2026-04-21 23:02 | 25.50452 | -147.31044 | 32128 ft | 476 kts | 248° |
| 2026-04-21 23:03 | 25.47544 | -147.37584 | 32124 ft | 478 kts | 248° |
| 2026-04-21 23:03 | 25.44615 | -147.44157 | 32121 ft | 476 kts | 248° |
| 2026-04-21 23:04 | 25.41688 | -147.50720 | 32121 ft | 478 kts | 248° |
| 2026-04-21 23:04 | 25.38736 | -147.57326 | 32118 ft | 479 kts | 248° |
| 2026-04-21 23:05 | 25.35799 | -147.63892 | 32120 ft | 478 kts | 248° |
| 2026-04-21 23:05 | 25.32842 | -147.70491 | 32119 ft | 479 kts | 247° |
| 2026-04-21 23:06 | 25.29882 | -147.77086 | 32114 ft | 481 kts | 247° |
| 2026-04-21 23:06 | 25.26904 | -147.83711 | 32113 ft | 481 kts | 247° |
| 2026-04-21 23:07 | 25.23952 | -147.90271 | 32113 ft | 482 kts | 247° |
| 2026-04-21 23:07 | 25.20950 | -147.96931 | 32115 ft | 483 kts | 247° |
| 2026-04-21 23:08 | 25.17972 | -148.03526 | 32114 ft | 483 kts | 248° |
| 2026-04-21 23:08 | 25.14970 | -148.10167 | 32112 ft | 484 kts | 248° |
| 2026-04-21 23:09 | 25.11978 | -148.16775 | 32115 ft | 483 kts | 248° |
| 2026-04-21 23:09 | 25.08967 | -148.23416 | 32116 ft | 485 kts | 248° |
| 2026-04-21 23:10 | 25.05959 | -148.30039 | 32118 ft | 483 kts | 248° |
| 2026-04-21 23:10 | 25.02957 | -148.36641 | 32116 ft | 484 kts | 248° |
| 2026-04-21 23:11 | 24.99952 | -148.43237 | 32114 ft | 483 kts | 248° |
| 2026-04-21 23:11 | 24.96939 | -148.49846 | 32116 ft | 485 kts | 248° |
| 2026-04-21 23:12 | 24.93921 | -148.56455 | 32116 ft | 483 kts | 248° |
| 2026-04-21 23:12 | 24.90883 | -148.63095 | 32115 ft | 483 kts | 248° |
| 2026-04-21 23:13 | 24.87863 | -148.69690 | 32105 ft | 484 kts | 247° |
| 2026-04-21 23:13 | 24.84848 | -148.76257 | 32104 ft | 483 kts | 248° |
| 2026-04-21 23:14 | 24.81804 | -148.82886 | 32103 ft | 485 kts | 248° |
| 2026-04-21 23:14 | 24.78777 | -148.89464 | 32101 ft | 485 kts | 248° |
| 2026-04-21 23:15 | 24.75720 | -148.96100 | 32102 ft | 484 kts | 248° |
| 2026-04-21 23:15 | 24.72674 | -149.02702 | 32101 ft | 486 kts | 248° |
| 2026-04-21 23:16 | 24.69625 | -149.09302 | 32099 ft | 486 kts | 248° |
| 2026-04-21 23:16 | 24.66572 | -149.15897 | 32091 ft | 486 kts | 248° |
| 2026-04-21 23:17 | 24.63510 | -149.22504 | 32091 ft | 484 kts | 248° |
| 2026-04-21 23:17 | 24.60478 | -149.29040 | 32095 ft | 485 kts | 248° |
| 2026-04-21 23:18 | 24.57414 | -149.35632 | 32081 ft | 484 kts | 248° |
| 2026-04-21 23:18 | 24.54353 | -149.42209 | 32085 ft | 484 kts | 248° |
| 2026-04-21 23:19 | 24.51294 | -149.48772 | 32082 ft | 486 kts | 248° |
| 2026-04-21 23:19 | 24.48212 | -149.55376 | 32078 ft | 484 kts | 248° |
| 2026-04-21 23:20 | 24.45152 | -149.61925 | 32077 ft | 486 kts | 248° |
| 2026-04-21 23:20 | 24.42068 | -149.68514 | 32077 ft | 485 kts | 248° |
| 2026-04-21 23:21 | 24.39001 | -149.75056 | 32076 ft | 486 kts | 248° |
| 2026-04-21 23:21 | 24.35907 | -149.81648 | 32074 ft | 484 kts | 248° |
| 2026-04-21 23:22 | 24.32841 | -149.88174 | 32076 ft | 484 kts | 248° |
| 2026-04-21 23:22 | 24.29741 | -149.94757 | 32075 ft | 485 kts | 248° |
| 2026-04-21 23:23 | 24.26667 | -150.01280 | 32072 ft | 484 kts | 248° |
| 2026-04-21 23:23 | 24.23588 | -150.07805 | 32076 ft | 485 kts | 248° |
| 2026-04-21 23:24 | 24.20484 | -150.14371 | 32072 ft | 485 kts | 248° |
| 2026-04-21 23:24 | 24.17384 | -150.20923 | 32074 ft | 486 kts | 248° |
| 2026-04-21 23:25 | 24.14273 | -150.27486 | 32073 ft | 485 kts | 248° |
| 2026-04-21 23:25 | 24.11160 | -150.34047 | 32074 ft | 486 kts | 249° |
| 2026-04-21 23:26 | 24.08045 | -150.40601 | 32074 ft | 486 kts | 248° |
| 2026-04-21 23:26 | 24.04943 | -150.47116 | 32073 ft | 485 kts | 249° |
| 2026-04-21 23:27 | 24.01829 | -150.53651 | 32071 ft | 485 kts | 249° |
| 2026-04-21 23:27 | 23.98717 | -150.60173 | 32074 ft | 485 kts | 249° |
| 2026-04-21 23:28 | 23.95586 | -150.66727 | 32078 ft | 486 kts | 248° |
| 2026-04-21 23:28 | 23.92455 | -150.73268 | 32074 ft | 486 kts | 248° |
| 2026-04-21 23:29 | 23.89335 | -150.79778 | 32070 ft | 484 kts | 249° |
| 2026-04-21 23:29 | 23.86208 | -150.86296 | 32064 ft | 485 kts | 249° |
| 2026-04-21 23:30 | 23.83077 | -150.92810 | 32066 ft | 485 kts | 249° |
| 2026-04-21 23:30 | 23.79958 | -150.99295 | 32066 ft | 484 kts | 249° |
| 2026-04-21 23:31 | 23.76820 | -151.05808 | 32066 ft | 485 kts | 249° |
| 2026-04-21 23:31 | 23.73694 | -151.12286 | 32063 ft | 485 kts | 249° |
| 2026-04-21 23:32 | 23.70549 | -151.18797 | 32060 ft | 484 kts | 249° |
| 2026-04-21 23:32 | 23.67406 | -151.25293 | 32062 ft | 483 kts | 249° |
| 2026-04-21 23:33 | 23.64276 | -151.31757 | 32063 ft | 485 kts | 249° |
| 2026-04-21 23:33 | 23.61130 | -151.38242 | 32060 ft | 483 kts | 249° |
| 2026-04-21 23:34 | 23.57976 | -151.44734 | 32060 ft | 483 kts | 249° |
| 2026-04-21 23:34 | 23.54838 | -151.51187 | 32057 ft | 483 kts | 249° |
| 2026-04-21 23:35 | 23.51678 | -151.57675 | 32056 ft | 483 kts | 249° |
| 2026-04-21 23:35 | 23.48527 | -151.64139 | 32055 ft | 483 kts | 249° |
| 2026-04-21 23:36 | 23.45370 | -151.70601 | 32058 ft | 482 kts | 248° |
| 2026-04-21 23:36 | 23.42240 | -151.77005 | 32055 ft | 483 kts | 248° |
| 2026-04-21 23:37 | 23.39077 | -151.83467 | 32052 ft | 483 kts | 248° |
| 2026-04-21 23:37 | 23.35919 | -151.89906 | 32053 ft | 482 kts | 248° |
| 2026-04-21 23:38 | 23.32755 | -151.96353 | 32053 ft | 482 kts | 248° |
| 2026-04-21 23:38 | 23.29588 | -152.02795 | 32051 ft | 482 kts | 248° |
| 2026-04-21 23:39 | 23.26433 | -152.09207 | 32052 ft | 481 kts | 248° |
| 2026-04-21 23:39 | 23.23265 | -152.15637 | 32053 ft | 482 kts | 248° |
| 2026-04-21 23:40 | 23.20115 | -152.22020 | 32052 ft | 480 kts | 248° |
| 2026-04-21 23:40 | 23.16977 | -152.28372 | 32052 ft | 478 kts | 248° |
| 2026-04-21 23:41 | 23.13827 | -152.34740 | 32053 ft | 480 kts | 248° |
| 2026-04-21 23:41 | 23.10682 | -152.41090 | 32054 ft | 480 kts | 248° |
| 2026-04-21 23:42 | 23.07520 | -152.47464 | 32051 ft | 478 kts | 248° |
| 2026-04-21 23:42 | 23.04351 | -152.53848 | 32053 ft | 480 kts | 248° |
| 2026-04-21 23:43 | 23.01196 | -152.60176 | 32052 ft | 477 kts | 248° |
| 2026-04-21 23:43 | 22.98044 | -152.66464 | 32052 ft | 473 kts | 248° |
| 2026-04-21 23:44 | 22.94890 | -152.72755 | 32058 ft | 474 kts | 247° |
| 2026-04-21 23:44 | 22.91732 | -152.79038 | 32054 ft | 473 kts | 247° |
| 2026-04-21 23:45 | 22.87016 | -152.88409 | 32044 ft | 472 kts | 248° |
| 2026-04-21 23:46 | 22.83865 | -152.94661 | 32042 ft | 471 kts | 247° |
| 2026-04-21 23:46 | 22.80727 | -153.00877 | 32042 ft | 470 kts | 248° |
| 2026-04-21 23:47 | 22.77592 | -153.07082 | 32044 ft | 471 kts | 248° |
| 2026-04-21 23:47 | 22.74451 | -153.13289 | 32045 ft | 470 kts | 247° |
| 2026-04-21 23:48 | 22.71302 | -153.19505 | 32042 ft | 471 kts | 247° |
| 2026-04-21 23:48 | 22.68155 | -153.25709 | 32041 ft | 471 kts | 247° |
| 2026-04-21 23:49 | 22.65015 | -153.31891 | 32037 ft | 471 kts | 247° |
| 2026-04-21 23:49 | 22.61870 | -153.38077 | 32034 ft | 469 kts | 247° |
| 2026-04-21 23:50 | 22.58707 | -153.44290 | 32032 ft | 469 kts | 247° |
| 2026-04-21 23:50 | 22.55584 | -153.50420 | 32031 ft | 468 kts | 247° |
| 2026-04-21 23:51 | 22.52420 | -153.56619 | 32031 ft | 469 kts | 247° |
| 2026-04-21 23:51 | 22.49286 | -153.62755 | 32029 ft | 468 kts | 247° |
| 2026-04-21 23:52 | 22.46129 | -153.68927 | 32033 ft | 469 kts | 246° |
| 2026-04-21 23:52 | 22.42980 | -153.75076 | 32034 ft | 469 kts | 246° |
| 2026-04-21 23:53 | 22.39823 | -153.81235 | 32032 ft | 468 kts | 246° |
| 2026-04-21 23:53 | 22.36509 | -153.87321 | 32039 ft | 472 kts | 238° |
| 2026-04-21 23:54 | 22.32058 | -153.92584 | 32031 ft | 479 kts | 231° |
| 2026-04-21 23:54 | 22.27383 | -153.97731 | 32032 ft | 479 kts | 231° |
| 2026-04-21 23:55 | 22.22699 | -154.02841 | 32030 ft | 479 kts | 230° |
| 2026-04-21 23:55 | 22.18018 | -154.07928 | 32030 ft | 478 kts | 230° |
| 2026-04-21 23:56 | 22.13295 | -154.13051 | 32032 ft | 480 kts | 230° |
| 2026-04-21 23:56 | 22.08591 | -154.18144 | 32033 ft | 480 kts | 230° |
| 2026-04-21 23:57 | 22.03890 | -154.23227 | 32033 ft | 478 kts | 230° |
| 2026-04-21 23:57 | 21.99204 | -154.28291 | 32033 ft | 478 kts | 230° |
| 2026-04-21 23:58 | 21.94539 | -154.33327 | 32032 ft | 476 kts | 230° |
| 2026-04-21 23:58 | 21.89861 | -154.38373 | 32032 ft | 478 kts | 230° |
| 2026-04-21 23:59 | 21.85112 | -154.43489 | 32026 ft | 476 kts | 230° |
| 2026-04-21 23:59 | 21.80422 | -154.48537 | 32021 ft | 475 kts | 230° |
| 2026-04-22 00:00 | 21.75739 | -154.53571 | 32024 ft | 476 kts | 230° |
| 2026-04-22 00:00 | 21.71062 | -154.58597 | 32020 ft | 477 kts | 230° |
| 2026-04-22 00:01 | 21.66358 | -154.63643 | 32018 ft | 476 kts | 230° |
| 2026-04-22 00:01 | 21.61694 | -154.68643 | 32022 ft | 475 kts | 230° |
| 2026-04-22 00:02 | 21.57027 | -154.73644 | 32022 ft | 475 kts | 230° |
| 2026-04-22 00:02 | 21.52356 | -154.78639 | 32021 ft | 474 kts | 230° |
| 2026-04-22 00:03 | 21.47669 | -154.83650 | 32027 ft | 474 kts | 230° |
| 2026-04-22 00:03 | 21.43413 | -154.88196 | 32032 ft | 473 kts | 230° |
| 2026-04-22 00:04 | 21.38748 | -154.93173 | 32028 ft | 472 kts | 230° |
| 2026-04-22 00:04 | 21.34111 | -154.98116 | 32031 ft | 472 kts | 230° |
| 2026-04-22 00:05 | 21.29451 | -155.03079 | 32028 ft | 472 kts | 230° |
| 2026-04-22 00:05 | 21.27137 | -155.05539 | 32024 ft | 461 kts | 230° |
| 2026-04-22 00:05 | 21.24887 | -155.07928 | 32023 ft | 448 kts | 230° |
| 2026-04-22 00:06 | 21.20499 | -155.12601 | 32034 ft | 447 kts | 230° |
| 2026-04-22 00:06 | 21.16048 | -155.17333 | 31713 ft | 457 kts | 230° |
| 2026-04-22 00:06 | 21.13774 | -155.19746 | 31256 ft | 459 kts | 230° |
| 2026-04-22 00:07 | 21.11504 | -155.22153 | 30713 ft | 458 kts | 230° |
| 2026-04-22 00:07 | 21.09243 | -155.24550 | 30177 ft | 456 kts | 229° |
| 2026-04-22 00:07 | 21.07012 | -155.26915 | 29651 ft | 455 kts | 229° |
| 2026-04-22 00:07 | 21.04737 | -155.29324 | 29123 ft | 456 kts | 229° |
| 2026-04-22 00:08 | 21.02504 | -155.31688 | 28601 ft | 453 kts | 229° |
| 2026-04-22 00:08 | 21.00281 | -155.34041 | 28074 ft | 448 kts | 229° |
| 2026-04-22 00:08 | 20.98081 | -155.36366 | 27560 ft | 443 kts | 229° |
| 2026-04-22 00:08 | 20.95887 | -155.38687 | 27051 ft | 438 kts | 229° |
| 2026-04-22 00:09 | 20.93735 | -155.40962 | 26552 ft | 436 kts | 229° |
| 2026-04-22 00:09 | 20.91575 | -155.43245 | 26057 ft | 434 kts | 229° |
| 2026-04-22 00:09 | 20.89501 | -155.45438 | 25588 ft | 431 kts | 229° |
| 2026-04-22 00:09 | 20.87357 | -155.47700 | 25094 ft | 428 kts | 229° |
| 2026-04-22 00:10 | 20.85246 | -155.49927 | 24611 ft | 425 kts | 229° |
| 2026-04-22 00:10 | 20.83154 | -155.52135 | 24134 ft | 422 kts | 229° |
| 2026-04-22 00:10 | 20.81068 | -155.54335 | 23664 ft | 419 kts | 229° |
| 2026-04-22 00:10 | 20.79005 | -155.56508 | 23208 ft | 417 kts | 229° |
| 2026-04-22 00:11 | 20.76939 | -155.58687 | 22751 ft | 413 kts | 229° |
| 2026-04-22 00:11 | 20.74923 | -155.60808 | 22319 ft | 410 kts | 229° |
| 2026-04-22 00:11 | 20.72882 | -155.62958 | 21884 ft | 407 kts | 229° |
| 2026-04-22 00:11 | 20.70891 | -155.65053 | 21454 ft | 403 kts | 229° |
| 2026-04-22 00:12 | 20.68926 | -155.67120 | 21032 ft | 399 kts | 229° |
| 2026-04-22 00:12 | 20.66948 | -155.69200 | 20602 ft | 396 kts | 229° |
| 2026-04-22 00:12 | 20.65007 | -155.71240 | 20177 ft | 393 kts | 229° |
| 2026-04-22 00:12 | 20.63044 | -155.73303 | 19746 ft | 390 kts | 229° |
| 2026-04-22 00:13 | 20.61121 | -155.75323 | 19309 ft | 388 kts | 229° |
| 2026-04-22 00:13 | 20.59205 | -155.77335 | 18880 ft | 386 kts | 229° |
| 2026-04-22 00:13 | 20.57307 | -155.79326 | 18456 ft | 383 kts | 229° |
| 2026-04-22 00:13 | 20.55412 | -155.81314 | 18023 ft | 380 kts | 229° |
| 2026-04-22 00:14 | 20.53540 | -155.83279 | 17580 ft | 377 kts | 229° |
| 2026-04-22 00:14 | 20.51673 | -155.85237 | 17164 ft | 372 kts | 228° |
| 2026-04-22 00:14 | 20.49856 | -155.87178 | 16670 ft | 370 kts | 232° |
| 2026-04-22 00:14 | 20.48434 | -155.89410 | 16073 ft | 360 kts | 249° |
| 2026-04-22 00:15 | 20.47688 | -155.91914 | 15538 ft | 350 kts | 265° |
| 2026-04-22 00:15 | 20.47572 | -155.94473 | 15126 ft | 343 kts | 272° |
| 2026-04-22 00:15 | 20.47589 | -155.96991 | 14690 ft | 339 kts | 272° |
| 2026-04-22 00:15 | 20.47630 | -155.99446 | 14269 ft | 332 kts | 273° |
| 2026-04-22 00:16 | 20.47691 | -156.01906 | 13864 ft | 333 kts | 273° |
| 2026-04-22 00:16 | 20.47766 | -156.04404 | 13442 ft | 337 kts | 273° |
| 2026-04-22 00:16 | 20.47848 | -156.06911 | 12973 ft | 338 kts | 273° |
| 2026-04-22 00:16 | 20.47931 | -156.09375 | 12504 ft | 335 kts | 273° |
| 2026-04-22 00:17 | 20.48016 | -156.11847 | 12042 ft | 331 kts | 273° |
| 2026-04-22 00:17 | 20.48101 | -156.14299 | 11599 ft | 329 kts | 273° |
| 2026-04-22 00:17 | 20.48186 | -156.16696 | 11174 ft | 328 kts | 273° |
| 2026-04-22 00:17 | 20.48272 | -156.19139 | 10738 ft | 328 kts | 273° |
| 2026-04-22 00:18 | 20.48356 | -156.21545 | 10274 ft | 327 kts | 273° |
| 2026-04-22 00:18 | 20.48438 | -156.23927 | 10144 ft | 310 kts | 273° |
| 2026-04-22 00:18 | 20.48515 | -156.26147 | 9991 ft | 293 kts | 273° |
| 2026-04-22 00:18 | 20.48588 | -156.28247 | 9846 ft | 275 kts | 273° |
| 2026-04-22 00:19 | 20.48658 | -156.30273 | 9688 ft | 273 kts | 273° |
| 2026-04-22 00:19 | 20.48731 | -156.32353 | 9479 ft | 283 kts | 273° |
| 2026-04-22 00:19 | 20.48802 | -156.34431 | 9245 ft | 281 kts | 273° |
| 2026-04-22 00:19 | 20.48873 | -156.36500 | 8951 ft | 279 kts | 273° |
| 2026-04-22 00:20 | 20.48943 | -156.38545 | 8613 ft | 277 kts | 273° |
| 2026-04-22 00:20 | 20.49140 | -156.40593 | 8296 ft | 273 kts | 289° |
| 2026-04-22 00:20 | 20.50057 | -156.42302 | 8041 ft | 270 kts | 316° |
| 2026-04-22 00:20 | 20.51532 | -156.43604 | 7737 ft | 274 kts | 323° |
| 2026-04-22 00:21 | 20.53038 | -156.44824 | 7416 ft | 271 kts | 323° |
| 2026-04-22 00:21 | 20.54554 | -156.46027 | 7073 ft | 268 kts | 324° |
| 2026-04-22 00:21 | 20.56039 | -156.47183 | 6744 ft | 265 kts | 324° |
| 2026-04-22 00:21 | 20.57529 | -156.48332 | 6428 ft | 264 kts | 324° |
| 2026-04-22 00:22 | 20.59036 | -156.49487 | 6120 ft | 264 kts | 325° |
| 2026-04-22 00:22 | 20.60535 | -156.50633 | 5820 ft | 264 kts | 325° |
| 2026-04-22 00:22 | 20.62026 | -156.51770 | 5529 ft | 264 kts | 325° |
| 2026-04-22 00:22 | 20.63528 | -156.52916 | 5228 ft | 262 kts | 325° |
| 2026-04-22 00:23 | 20.64936 | -156.53989 | 4940 ft | 261 kts | 325° |
| 2026-04-22 00:23 | 20.66418 | -156.55118 | 4648 ft | 259 kts | 325° |
| 2026-04-22 00:23 | 20.67898 | -156.56224 | 4353 ft | 258 kts | 331° |
| 2026-04-22 00:23 | 20.69569 | -156.56782 | 4090 ft | 252 kts | 0° |
| 2026-04-22 00:24 | 20.71243 | -156.56387 | 3939 ft | 242 kts | 24° |
| 2026-04-22 00:24 | 20.72729 | -156.55609 | 3775 ft | 236 kts | 33° |
| 2026-04-22 00:24 | 20.74055 | -156.54614 | 3605 ft | 230 kts | 36° |
| 2026-04-22 00:24 | 20.75362 | -156.53630 | 3431 ft | 224 kts | 35° |
| 2026-04-22 00:25 | 20.76636 | -156.52684 | 3263 ft | 219 kts | 35° |
| 2026-04-22 00:25 | 20.77875 | -156.51765 | 2913 ft | 226 kts | 35° |
| 2026-04-22 00:25 | 20.79214 | -156.50792 | 2352 ft | 234 kts | 35° |
| 2026-04-22 00:25 | 20.80573 | -156.49782 | 2017 ft | 236 kts | 35° |
| 2026-04-22 00:26 | 20.81932 | -156.48775 | 1654 ft | 233 kts | 35° |
| 2026-04-22 00:26 | 20.83234 | -156.47815 | 1372 ft | 213 kts | 34° |
| 2026-04-22 00:26 | 20.84389 | -156.46964 | 1127 ft | 189 kts | 34° |
| 2026-04-22 00:26 | 20.85410 | -156.46211 | 943 ft | 165 kts | 34° |
| 2026-04-22 00:27 | 20.86297 | -156.45564 | 774 ft | 144 kts | 33° |
| 2026-04-22 00:27 | 20.87128 | -156.44975 | 518 ft | 137 kts | 33° |
| 2026-04-22 00:27 | 20.87897 | -156.44391 | 338 ft | 135 kts | 34° |
| 2026-04-22 00:27 | 20.88665 | -156.43816 | 158 ft | 132 kts | 34° |
| 2026-04-22 00:28 | 20.89399 | -156.43272 | 69 ft | 115 kts | 35° |
| 2026-04-22 00:28 | 20.89878 | -156.42915 | 69 ft | 50 kts | 35° |
| 2026-04-22 00:28 | 20.90061 | -156.42780 | 68 ft | 16 kts | 35° |
| 2026-04-22 00:28 | 20.90163 | -156.42703 | 68 ft | 21 kts | 36° |
| 2026-04-22 00:29 | 20.90304 | -156.42598 | 68 ft | 25 kts | 35° |
| 2026-04-22 00:29 | 20.90439 | -156.42509 | 68 ft | 11 kts | 7° |
| 2026-04-22 00:29 | 20.90488 | -156.42539 | 68 ft | 8 kts | 288° |
| 2026-04-22 00:29 | 20.90469 | -156.42610 | 68 ft | 12 kts | 243° |
| 2026-04-22 00:30 | 20.90410 | -156.42682 | 68 ft | 12 kts | 216° |
| 2026-04-22 00:30 | 20.90339 | -156.42734 | 68 ft | 12 kts | 215° |
| 2026-04-22 00:30 | 20.90263 | -156.42789 | 68 ft | 15 kts | 214° |
| 2026-04-22 00:30 | 20.90165 | -156.42862 | 68 ft | 19 kts | 214° |
| 2026-04-22 00:31 | 20.90040 | -156.42953 | 68 ft | 24 kts | 215° |
| 2026-04-22 00:31 | 20.89898 | -156.43060 | 68 ft | 24 kts | 214° |
| 2026-04-22 00:31 | 20.89759 | -156.43162 | 68 ft | 23 kts | 216° |
| 2026-04-22 00:31 | 20.89623 | -156.43265 | 68 ft | 23 kts | 215° |
| 2026-04-22 00:32 | 20.89493 | -156.43364 | 68 ft | 22 kts | 214° |
| 2026-04-22 00:32 | 20.89364 | -156.43457 | 68 ft | 21 kts | 214° |
| 2026-04-22 00:32 | 20.89243 | -156.43549 | 68 ft | 21 kts | 216° |
| 2026-04-22 00:32 | 20.89123 | -156.43639 | 68 ft | 20 kts | 216° |
| 2026-04-22 00:33 | 20.89018 | -156.43736 | 67 ft | 18 kts | 245° |
| 2026-04-22 00:33 | 20.89043 | -156.43823 | 67 ft | 9 kts | 308° |
| 2026-04-22 00:33 | 20.89056 | -156.43845 | 67 ft | 0 kts | 305° |